sensor_id;sensor_type;location;lat;lon;timestamp;P1;durP1;ratioP1;P2;durP2;ratioP2
43118;SDS011;28729;49.838;8.650;2023-07-29T00:00:12;4.32;;;2.50;;
43118;SDS011;28729;49.838;8.650;2023-07-29T00:04:15;4.45;;;2.47;;
43118;SDS011;28729;49.838;8.650;2023-07-29T00:08:16;3.40;;;2.58;;
43118;SDS011;28729;49.838;8.650;2023-07-29T00:12:18;3.88;;;2.45;;
43118;SDS011;28729;49.838;8.650;2023-07-29T00:16:20;3.27;;;2.30;;
43118;SDS011;28729;49.838;8.650;2023-07-29T00:20:25;6.05;;;2.33;;
43118;SDS011;28729;49.838;8.650;2023-07-29T00:24:27;3.35;;;1.80;;
43118;SDS011;28729;49.838;8.650;2023-07-29T00:28:28;2.30;;;1.65;;
43118;SDS011;28729;49.838;8.650;2023-07-29T00:32:30;2.53;;;1.50;;
43118;SDS011;28729;49.838;8.650;2023-07-29T00:36:33;3.67;;;2.17;;
43118;SDS011;28729;49.838;8.650;2023-07-29T00:40:35;2.85;;;1.67;;
43118;SDS011;28729;49.838;8.650;2023-07-29T00:44:38;5.47;;;2.03;;
43118;SDS011;28729;49.838;8.650;2023-07-29T00:48:40;5.00;;;1.80;;
43118;SDS011;28729;49.838;8.650;2023-07-29T00:52:42;4.20;;;1.67;;
43118;SDS011;28729;49.838;8.650;2023-07-29T00:56:44;2.65;;;1.60;;
43118;SDS011;28729;49.838;8.650;2023-07-29T01:00:46;2.95;;;1.90;;
43118;SDS011;28729;49.838;8.650;2023-07-29T01:04:54;1.83;;;1.13;;
43118;SDS011;28729;49.838;8.650;2023-07-29T01:09:02;3.38;;;1.40;;
43118;SDS011;28729;49.838;8.650;2023-07-29T01:13:10;4.03;;;1.38;;
43118;SDS011;28729;49.838;8.650;2023-07-29T01:17:22;3.80;;;1.17;;
43118;SDS011;28729;49.838;8.650;2023-07-29T01:21:25;2.90;;;1.40;;
43118;SDS011;28729;49.838;8.650;2023-07-29T01:25:28;1.85;;;1.13;;
43118;SDS011;28729;49.838;8.650;2023-07-29T01:29:30;2.33;;;1.23;;
43118;SDS011;28729;49.838;8.650;2023-07-29T01:33:34;2.53;;;1.42;;
43118;SDS011;28729;49.838;8.650;2023-07-29T01:37:40;3.03;;;1.20;;
43118;SDS011;28729;49.838;8.650;2023-07-29T01:41:44;3.05;;;1.40;;
43118;SDS011;28729;49.838;8.650;2023-07-29T01:49:49;4.13;;;1.38;;
43118;SDS011;28729;49.838;8.650;2023-07-29T01:53:50;2.43;;;1.40;;
43118;SDS011;28729;49.838;8.650;2023-07-29T01:57:52;1.58;;;0.98;;
43118;SDS011;28729;49.838;8.650;2023-07-29T02:01:56;8.85;;;1.63;;
43118;SDS011;28729;49.838;8.650;2023-07-29T02:05:58;1.67;;;0.95;;
43118;SDS011;28729;49.838;8.650;2023-07-29T02:10:00;1.53;;;1.10;;
43118;SDS011;28729;49.838;8.650;2023-07-29T02:14:02;2.63;;;1.53;;
43118;SDS011;28729;49.838;8.650;2023-07-29T02:18:04;4.43;;;1.20;;
43118;SDS011;28729;49.838;8.650;2023-07-29T02:22:10;2.13;;;1.40;;
43118;SDS011;28729;49.838;8.650;2023-07-29T02:26:16;1.80;;;1.20;;
43118;SDS011;28729;49.838;8.650;2023-07-29T02:30:20;2.47;;;1.15;;
43118;SDS011;28729;49.838;8.650;2023-07-29T02:34:22;3.75;;;1.55;;
43118;SDS011;28729;49.838;8.650;2023-07-29T02:38:24;4.75;;;1.42;;
43118;SDS011;28729;49.838;8.650;2023-07-29T02:42:26;2.03;;;1.20;;
43118;SDS011;28729;49.838;8.650;2023-07-29T02:46:28;1.85;;;1.20;;
43118;SDS011;28729;49.838;8.650;2023-07-29T02:50:30;3.63;;;1.30;;
43118;SDS011;28729;49.838;8.650;2023-07-29T02:54:32;2.58;;;1.50;;
43118;SDS011;28729;49.838;8.650;2023-07-29T02:58:33;4.15;;;1.40;;
43118;SDS011;28729;49.838;8.650;2023-07-29T03:02:35;2.47;;;1.30;;
43118;SDS011;28729;49.838;8.650;2023-07-29T03:06:38;2.88;;;1.50;;
43118;SDS011;28729;49.838;8.650;2023-07-29T03:10:40;7.67;;;1.50;;
43118;SDS011;28729;49.838;8.650;2023-07-29T03:14:47;3.83;;;1.55;;
43118;SDS011;28729;49.838;8.650;2023-07-29T03:18:49;3.50;;;1.52;;
43118;SDS011;28729;49.838;8.650;2023-07-29T03:22:51;4.03;;;1.47;;
43118;SDS011;28729;49.838;8.650;2023-07-29T03:26:53;2.72;;;1.30;;
43118;SDS011;28729;49.838;8.650;2023-07-29T03:30:55;3.53;;;1.25;;
43118;SDS011;28729;49.838;8.650;2023-07-29T03:34:58;3.72;;;1.30;;
43118;SDS011;28729;49.838;8.650;2023-07-29T03:39:00;1.90;;;1.20;;
43118;SDS011;28729;49.838;8.650;2023-07-29T03:43:05;1.88;;;1.38;;
43118;SDS011;28729;49.838;8.650;2023-07-29T03:47:07;6.30;;;1.33;;
43118;SDS011;28729;49.838;8.650;2023-07-29T03:55:12;3.00;;;1.70;;
43118;SDS011;28729;49.838;8.650;2023-07-29T03:59:14;4.28;;;1.58;;
43118;SDS011;28729;49.838;8.650;2023-07-29T04:03:17;3.35;;;1.67;;
43118;SDS011;28729;49.838;8.650;2023-07-29T04:07:20;4.43;;;1.55;;
43118;SDS011;28729;49.838;8.650;2023-07-29T04:11:22;5.80;;;2.00;;
43118;SDS011;28729;49.838;8.650;2023-07-29T04:19:26;3.88;;;1.50;;
43118;SDS011;28729;49.838;8.650;2023-07-29T04:23:28;4.40;;;1.95;;
43118;SDS011;28729;49.838;8.650;2023-07-29T04:27:30;3.25;;;1.75;;
43118;SDS011;28729;49.838;8.650;2023-07-29T04:31:31;6.68;;;1.70;;
43118;SDS011;28729;49.838;8.650;2023-07-29T04:35:33;2.35;;;1.60;;
43118;SDS011;28729;49.838;8.650;2023-07-29T04:39:35;3.45;;;2.25;;
43118;SDS011;28729;49.838;8.650;2023-07-29T04:43:37;2.97;;;1.60;;
43118;SDS011;28729;49.838;8.650;2023-07-29T04:47:38;7.40;;;1.58;;
43118;SDS011;28729;49.838;8.650;2023-07-29T04:51:40;3.77;;;1.90;;
43118;SDS011;28729;49.838;8.650;2023-07-29T04:55:42;2.80;;;1.85;;
43118;SDS011;28729;49.838;8.650;2023-07-29T04:59:44;4.60;;;1.95;;
43118;SDS011;28729;49.838;8.650;2023-07-29T05:03:47;3.05;;;2.00;;
43118;SDS011;28729;49.838;8.650;2023-07-29T05:07:48;3.90;;;1.83;;
43118;SDS011;28729;49.838;8.650;2023-07-29T05:11:50;3.70;;;2.08;;
43118;SDS011;28729;49.838;8.650;2023-07-29T05:15:52;4.17;;;1.80;;
43118;SDS011;28729;49.838;8.650;2023-07-29T05:19:54;4.20;;;1.87;;
43118;SDS011;28729;49.838;8.650;2023-07-29T05:23:56;5.28;;;2.22;;
43118;SDS011;28729;49.838;8.650;2023-07-29T05:27:58;4.22;;;2.00;;
43118;SDS011;28729;49.838;8.650;2023-07-29T05:32:00;4.28;;;1.90;;
43118;SDS011;28729;49.838;8.650;2023-07-29T05:36:02;4.20;;;1.80;;
43118;SDS011;28729;49.838;8.650;2023-07-29T05:40:04;3.17;;;1.97;;
43118;SDS011;28729;49.838;8.650;2023-07-29T05:44:07;6.60;;;2.03;;
43118;SDS011;28729;49.838;8.650;2023-07-29T05:48:11;4.20;;;1.73;;
43118;SDS011;28729;49.838;8.650;2023-07-29T05:52:13;5.55;;;1.95;;
43118;SDS011;28729;49.838;8.650;2023-07-29T05:56:14;2.63;;;1.80;;
43118;SDS011;28729;49.838;8.650;2023-07-29T06:00:18;3.45;;;2.00;;
43118;SDS011;28729;49.838;8.650;2023-07-29T06:04:20;3.20;;;1.70;;
43118;SDS011;28729;49.838;8.650;2023-07-29T06:08:22;6.35;;;1.83;;
43118;SDS011;28729;49.838;8.650;2023-07-29T06:12:24;4.13;;;2.07;;
43118;SDS011;28729;49.838;8.650;2023-07-29T06:16:26;3.03;;;2.03;;
43118;SDS011;28729;49.838;8.650;2023-07-29T06:20:28;3.17;;;1.87;;
43118;SDS011;28729;49.838;8.650;2023-07-29T06:24:30;5.43;;;1.80;;
43118;SDS011;28729;49.838;8.650;2023-07-29T06:28:32;3.28;;;1.90;;
43118;SDS011;28729;49.838;8.650;2023-07-29T06:32:34;2.57;;;2.00;;
43118;SDS011;28729;49.838;8.650;2023-07-29T06:36:36;5.35;;;2.85;;
43118;SDS011;28729;49.838;8.650;2023-07-29T06:40:38;10.43;;;4.47;;
43118;SDS011;28729;49.838;8.650;2023-07-29T06:44:40;10.38;;;5.28;;
43118;SDS011;28729;49.838;8.650;2023-07-29T06:48:42;9.27;;;5.67;;
43118;SDS011;28729;49.838;8.650;2023-07-29T06:52:43;8.23;;;5.30;;
43118;SDS011;28729;49.838;8.650;2023-07-29T06:56:46;8.80;;;4.78;;
43118;SDS011;28729;49.838;8.650;2023-07-29T07:00:51;10.65;;;5.20;;
43118;SDS011;28729;49.838;8.650;2023-07-29T07:04:55;8.50;;;5.45;;
43118;SDS011;28729;49.838;8.650;2023-07-29T07:08:57;7.35;;;4.90;;
43118;SDS011;28729;49.838;8.650;2023-07-29T07:12:59;6.88;;;3.85;;
43118;SDS011;28729;49.838;8.650;2023-07-29T07:17:01;6.07;;;3.58;;
43118;SDS011;28729;49.838;8.650;2023-07-29T07:21:02;4.95;;;3.15;;
43118;SDS011;28729;49.838;8.650;2023-07-29T07:25:05;6.65;;;2.97;;
43118;SDS011;28729;49.838;8.650;2023-07-29T07:29:09;4.70;;;2.80;;
43118;SDS011;28729;49.838;8.650;2023-07-29T07:33:10;3.50;;;2.22;;
43118;SDS011;28729;49.838;8.650;2023-07-29T07:37:12;7.28;;;2.03;;
43118;SDS011;28729;49.838;8.650;2023-07-29T07:41:14;5.07;;;2.00;;
43118;SDS011;28729;49.838;8.650;2023-07-29T07:45:16;5.50;;;1.98;;
43118;SDS011;28729;49.838;8.650;2023-07-29T07:49:19;3.33;;;1.73;;
43118;SDS011;28729;49.838;8.650;2023-07-29T07:53:21;4.23;;;1.90;;
43118;SDS011;28729;49.838;8.650;2023-07-29T07:57:23;2.97;;;2.00;;
43118;SDS011;28729;49.838;8.650;2023-07-29T08:01:24;6.03;;;2.13;;
43118;SDS011;28729;49.838;8.650;2023-07-29T08:05:26;5.10;;;2.00;;
43118;SDS011;28729;49.838;8.650;2023-07-29T08:09:28;4.20;;;2.10;;
43118;SDS011;28729;49.838;8.650;2023-07-29T08:13:39;4.60;;;2.33;;
43118;SDS011;28729;49.838;8.650;2023-07-29T08:17:41;3.60;;;2.47;;
43118;SDS011;28729;49.838;8.650;2023-07-29T08:21:43;5.38;;;2.13;;
43118;SDS011;28729;49.838;8.650;2023-07-29T08:25:51;4.57;;;2.50;;
43118;SDS011;28729;49.838;8.650;2023-07-29T08:29:55;3.88;;;2.15;;
43118;SDS011;28729;49.838;8.650;2023-07-29T08:33:57;2.75;;;1.80;;
43118;SDS011;28729;49.838;8.650;2023-07-29T08:37:58;5.60;;;2.17;;
43118;SDS011;28729;49.838;8.650;2023-07-29T08:42:01;4.93;;;2.70;;
43118;SDS011;28729;49.838;8.650;2023-07-29T08:46:08;4.75;;;2.80;;
43118;SDS011;28729;49.838;8.650;2023-07-29T08:50:11;6.35;;;3.10;;
43118;SDS011;28729;49.838;8.650;2023-07-29T08:54:15;5.40;;;2.35;;
43118;SDS011;28729;49.838;8.650;2023-07-29T08:58:18;4.97;;;3.10;;
43118;SDS011;28729;49.838;8.650;2023-07-29T09:02:21;4.25;;;2.40;;
43118;SDS011;28729;49.838;8.650;2023-07-29T09:06:23;3.23;;;2.03;;
43118;SDS011;28729;49.838;8.650;2023-07-29T09:10:27;5.25;;;2.88;;
43118;SDS011;28729;49.838;8.650;2023-07-29T09:14:29;4.37;;;2.33;;
43118;SDS011;28729;49.838;8.650;2023-07-29T09:18:30;3.03;;;1.63;;
43118;SDS011;28729;49.838;8.650;2023-07-29T09:22:32;5.87;;;2.10;;
43118;SDS011;28729;49.838;8.650;2023-07-29T09:26:34;3.23;;;1.43;;
43118;SDS011;28729;49.838;8.650;2023-07-29T09:30:38;2.22;;;1.13;;
43118;SDS011;28729;49.838;8.650;2023-07-29T09:34:41;3.97;;;1.52;;
43118;SDS011;28729;49.838;8.650;2023-07-29T09:38:43;3.50;;;1.15;;
43118;SDS011;28729;49.838;8.650;2023-07-29T09:42:53;2.97;;;1.20;;
43118;SDS011;28729;49.838;8.650;2023-07-29T09:46:56;1.52;;;0.90;;
43118;SDS011;28729;49.838;8.650;2023-07-29T09:50:58;3.00;;;1.02;;
43118;SDS011;28729;49.838;8.650;2023-07-29T09:55:00;2.93;;;0.97;;
43118;SDS011;28729;49.838;8.650;2023-07-29T09:59:03;2.85;;;0.93;;
43118;SDS011;28729;49.838;8.650;2023-07-29T10:03:06;3.17;;;1.00;;
43118;SDS011;28729;49.838;8.650;2023-07-29T10:07:09;4.57;;;0.90;;
43118;SDS011;28729;49.838;8.650;2023-07-29T10:11:12;2.92;;;0.98;;
43118;SDS011;28729;49.838;8.650;2023-07-29T10:15:14;2.80;;;1.08;;
43118;SDS011;28729;49.838;8.650;2023-07-29T10:19:17;2.03;;;1.17;;
43118;SDS011;28729;49.838;8.650;2023-07-29T10:23:20;2.70;;;1.15;;
43118;SDS011;28729;49.838;8.650;2023-07-29T10:27:23;5.22;;;1.42;;
43118;SDS011;28729;49.838;8.650;2023-07-29T10:31:26;1.80;;;1.23;;
43118;SDS011;28729;49.838;8.650;2023-07-29T10:35:32;4.97;;;1.30;;
43118;SDS011;28729;49.838;8.650;2023-07-29T10:39:38;6.20;;;1.67;;
43118;SDS011;28729;49.838;8.650;2023-07-29T10:43:41;2.53;;;1.48;;
43118;SDS011;28729;49.838;8.650;2023-07-29T10:47:43;2.75;;;1.30;;
43118;SDS011;28729;49.838;8.650;2023-07-29T10:51:45;2.38;;;1.60;;
43118;SDS011;28729;49.838;8.650;2023-07-29T10:55:52;3.35;;;1.55;;
43118;SDS011;28729;49.838;8.650;2023-07-29T10:59:54;5.25;;;1.88;;
43118;SDS011;28729;49.838;8.650;2023-07-29T11:08:31;2.55;;;1.67;;
43118;SDS011;28729;49.838;8.650;2023-07-29T11:16:38;5.45;;;1.75;;
43118;SDS011;28729;49.838;8.650;2023-07-29T11:20:40;3.53;;;1.83;;
43118;SDS011;28729;49.838;8.650;2023-07-29T11:24:42;3.35;;;1.70;;
43118;SDS011;28729;49.838;8.650;2023-07-29T11:28:43;2.38;;;1.80;;
43118;SDS011;28729;49.838;8.650;2023-07-29T11:32:47;3.75;;;1.88;;
43118;SDS011;28729;49.838;8.650;2023-07-29T11:36:49;1.95;;;1.70;;
43118;SDS011;28729;49.838;8.650;2023-07-29T11:41:09;3.00;;;1.77;;
43118;SDS011;28729;49.838;8.650;2023-07-29T11:45:11;2.75;;;1.50;;
43118;SDS011;28729;49.838;8.650;2023-07-29T11:49:18;2.95;;;2.00;;
43118;SDS011;28729;49.838;8.650;2023-07-29T11:53:19;4.80;;;1.80;;
43118;SDS011;28729;49.838;8.650;2023-07-29T11:57:21;4.35;;;1.88;;
43118;SDS011;28729;49.838;8.650;2023-07-29T12:01:25;2.72;;;1.80;;
43118;SDS011;28729;49.838;8.650;2023-07-29T12:05:27;3.50;;;1.90;;
43118;SDS011;28729;49.838;8.650;2023-07-29T12:09:29;4.47;;;2.13;;
43118;SDS011;28729;49.838;8.650;2023-07-29T12:13:32;3.70;;;1.50;;
43118;SDS011;28729;49.838;8.650;2023-07-29T12:17:39;4.55;;;1.63;;
43118;SDS011;28729;49.838;8.650;2023-07-29T12:21:41;3.80;;;1.92;;
43118;SDS011;28729;49.838;8.650;2023-07-29T12:25:43;2.60;;;1.60;;
43118;SDS011;28729;49.838;8.650;2023-07-29T12:33:55;3.58;;;1.48;;
43118;SDS011;28729;49.838;8.650;2023-07-29T12:38:00;3.28;;;1.48;;
43118;SDS011;28729;49.838;8.650;2023-07-29T12:42:02;2.47;;;1.50;;
43118;SDS011;28729;49.838;8.650;2023-07-29T12:46:05;4.97;;;1.80;;
43118;SDS011;28729;49.838;8.650;2023-07-29T12:54:08;3.17;;;1.75;;
43118;SDS011;28729;49.838;8.650;2023-07-29T12:58:11;3.15;;;1.35;;
43118;SDS011;28729;49.838;8.650;2023-07-29T13:02:13;5.43;;;1.70;;
43118;SDS011;28729;49.838;8.650;2023-07-29T13:06:15;2.45;;;1.45;;
43118;SDS011;28729;49.838;8.650;2023-07-29T13:10:17;1.98;;;1.38;;
43118;SDS011;28729;49.838;8.650;2023-07-29T13:14:19;2.28;;;1.42;;
43118;SDS011;28729;49.838;8.650;2023-07-29T13:18:21;1.85;;;1.30;;
43118;SDS011;28729;49.838;8.650;2023-07-29T13:22:23;3.20;;;1.60;;
43118;SDS011;28729;49.838;8.650;2023-07-29T13:26:25;3.60;;;1.50;;
43118;SDS011;28729;49.838;8.650;2023-07-29T13:30:26;2.95;;;1.70;;
43118;SDS011;28729;49.838;8.650;2023-07-29T13:34:28;2.78;;;1.58;;
43118;SDS011;28729;49.838;8.650;2023-07-29T13:38:30;2.40;;;1.35;;
43118;SDS011;28729;49.838;8.650;2023-07-29T13:42:32;2.30;;;1.80;;
43118;SDS011;28729;49.838;8.650;2023-07-29T13:46:34;2.60;;;1.70;;
43118;SDS011;28729;49.838;8.650;2023-07-29T13:50:36;2.28;;;1.50;;
43118;SDS011;28729;49.838;8.650;2023-07-29T13:54:38;2.33;;;1.55;;
43118;SDS011;28729;49.838;8.650;2023-07-29T13:58:41;3.28;;;1.70;;
43118;SDS011;28729;49.838;8.650;2023-07-29T14:02:42;2.08;;;1.48;;
43118;SDS011;28729;49.838;8.650;2023-07-29T14:06:45;2.85;;;1.38;;
43118;SDS011;28729;49.838;8.650;2023-07-29T14:10:52;3.05;;;1.50;;
43118;SDS011;28729;49.838;8.650;2023-07-29T14:14:55;2.38;;;1.52;;
43118;SDS011;28729;49.838;8.650;2023-07-29T14:18:56;2.78;;;1.60;;
43118;SDS011;28729;49.838;8.650;2023-07-29T14:26:59;5.30;;;1.33;;
43118;SDS011;28729;49.838;8.650;2023-07-29T14:31:01;4.45;;;1.50;;
43118;SDS011;28729;49.838;8.650;2023-07-29T14:39:05;1.77;;;1.20;;
43118;SDS011;28729;49.838;8.650;2023-07-29T14:43:07;3.78;;;1.42;;
43118;SDS011;28729;49.838;8.650;2023-07-29T14:47:09;2.55;;;1.40;;
43118;SDS011;28729;49.838;8.650;2023-07-29T14:51:10;3.30;;;1.33;;
43118;SDS011;28729;49.838;8.650;2023-07-29T14:55:12;2.42;;;1.70;;
43118;SDS011;28729;49.838;8.650;2023-07-29T14:59:14;3.20;;;1.45;;
43118;SDS011;28729;49.838;8.650;2023-07-29T15:11:20;2.20;;;1.25;;
43118;SDS011;28729;49.838;8.650;2023-07-29T15:15:22;1.73;;;1.20;;
43118;SDS011;28729;49.838;8.650;2023-07-29T15:19:24;1.75;;;1.27;;
43118;SDS011;28729;49.838;8.650;2023-07-29T15:27:28;4.20;;;1.53;;
43118;SDS011;28729;49.838;8.650;2023-07-29T15:31:30;4.97;;;1.30;;
43118;SDS011;28729;49.838;8.650;2023-07-29T15:35:36;3.30;;;1.58;;
43118;SDS011;28729;49.838;8.650;2023-07-29T15:39:40;2.42;;;1.45;;
43118;SDS011;28729;49.838;8.650;2023-07-29T15:43:43;2.00;;;1.42;;
43118;SDS011;28729;49.838;8.650;2023-07-29T15:47:45;2.03;;;1.60;;
43118;SDS011;28729;49.838;8.650;2023-07-29T15:51:47;3.53;;;1.35;;
43118;SDS011;28729;49.838;8.650;2023-07-29T15:55:49;2.33;;;1.42;;
43118;SDS011;28729;49.838;8.650;2023-07-29T15:59:52;2.55;;;1.38;;
43118;SDS011;28729;49.838;8.650;2023-07-29T16:03:54;3.35;;;1.42;;
43118;SDS011;28729;49.838;8.650;2023-07-29T16:07:56;2.97;;;1.20;;
43118;SDS011;28729;49.838;8.650;2023-07-29T16:11:59;2.67;;;1.75;;
43118;SDS011;28729;49.838;8.650;2023-07-29T16:16:03;3.30;;;1.30;;
43118;SDS011;28729;49.838;8.650;2023-07-29T16:24:08;1.98;;;1.25;;
43118;SDS011;28729;49.838;8.650;2023-07-29T16:28:10;3.10;;;1.60;;
43118;SDS011;28729;49.838;8.650;2023-07-29T16:32:11;3.42;;;1.50;;
43118;SDS011;28729;49.838;8.650;2023-07-29T16:36:13;3.10;;;1.35;;
43118;SDS011;28729;49.838;8.650;2023-07-29T16:40:16;3.67;;;1.40;;
43118;SDS011;28729;49.838;8.650;2023-07-29T16:48:19;3.10;;;1.30;;
43118;SDS011;28729;49.838;8.650;2023-07-29T16:52:21;2.33;;;1.30;;
43118;SDS011;28729;49.838;8.650;2023-07-29T16:56:23;4.00;;;1.48;;
43118;SDS011;28729;49.838;8.650;2023-07-29T17:00:25;2.95;;;1.52;;
43118;SDS011;28729;49.838;8.650;2023-07-29T17:04:27;3.78;;;1.48;;
43118;SDS011;28729;49.838;8.650;2023-07-29T17:08:29;2.80;;;1.15;;
43118;SDS011;28729;49.838;8.650;2023-07-29T17:12:30;3.25;;;1.40;;
43118;SDS011;28729;49.838;8.650;2023-07-29T17:16:33;2.28;;;1.00;;
43118;SDS011;28729;49.838;8.650;2023-07-29T17:20:35;2.10;;;1.23;;
43118;SDS011;28729;49.838;8.650;2023-07-29T17:24:37;3.92;;;1.30;;
43118;SDS011;28729;49.838;8.650;2023-07-29T17:28:39;2.92;;;1.35;;
43118;SDS011;28729;49.838;8.650;2023-07-29T17:32:41;2.08;;;1.02;;
43118;SDS011;28729;49.838;8.650;2023-07-29T17:36:43;1.90;;;1.10;;
43118;SDS011;28729;49.838;8.650;2023-07-29T17:40:47;3.70;;;1.42;;
43118;SDS011;28729;49.838;8.650;2023-07-29T17:44:50;4.53;;;1.80;;
43118;SDS011;28729;49.838;8.650;2023-07-29T17:48:52;3.63;;;1.38;;
43118;SDS011;28729;49.838;8.650;2023-07-29T17:52:54;2.40;;;1.27;;
43118;SDS011;28729;49.838;8.650;2023-07-29T17:57:03;3.72;;;1.58;;
43118;SDS011;28729;49.838;8.650;2023-07-29T18:01:05;3.25;;;1.77;;
43118;SDS011;28729;49.838;8.650;2023-07-29T18:05:07;2.90;;;1.80;;
43118;SDS011;28729;49.838;8.650;2023-07-29T18:09:09;2.60;;;1.55;;
43118;SDS011;28729;49.838;8.650;2023-07-29T18:13:11;4.35;;;1.40;;
43118;SDS011;28729;49.838;8.650;2023-07-29T18:17:13;2.92;;;1.52;;
43118;SDS011;28729;49.838;8.650;2023-07-29T18:21:15;2.42;;;1.52;;
43118;SDS011;28729;49.838;8.650;2023-07-29T18:25:17;1.90;;;1.30;;
43118;SDS011;28729;49.838;8.650;2023-07-29T18:29:18;3.07;;;1.50;;
43118;SDS011;28729;49.838;8.650;2023-07-29T18:33:21;4.55;;;1.75;;
43118;SDS011;28729;49.838;8.650;2023-07-29T18:37:23;3.35;;;1.60;;
43118;SDS011;28729;49.838;8.650;2023-07-29T18:41:24;4.10;;;1.50;;
43118;SDS011;28729;49.838;8.650;2023-07-29T18:45:31;3.15;;;1.70;;
43118;SDS011;28729;49.838;8.650;2023-07-29T18:49:40;3.58;;;1.95;;
43118;SDS011;28729;49.838;8.650;2023-07-29T18:53:42;7.15;;;1.90;;
43118;SDS011;28729;49.838;8.650;2023-07-29T18:57:44;5.73;;;1.80;;
43118;SDS011;28729;49.838;8.650;2023-07-29T19:01:46;3.07;;;1.70;;
43118;SDS011;28729;49.838;8.650;2023-07-29T19:05:48;2.95;;;1.65;;
43118;SDS011;28729;49.838;8.650;2023-07-29T19:09:50;3.00;;;1.70;;
43118;SDS011;28729;49.838;8.650;2023-07-29T19:13:55;2.70;;;1.83;;
43118;SDS011;28729;49.838;8.650;2023-07-29T19:17:57;2.57;;;1.63;;
43118;SDS011;28729;49.838;8.650;2023-07-29T19:21:59;3.45;;;1.80;;
43118;SDS011;28729;49.838;8.650;2023-07-29T19:26:01;5.03;;;2.35;;
43118;SDS011;28729;49.838;8.650;2023-07-29T19:30:03;3.10;;;2.03;;
43118;SDS011;28729;49.838;8.650;2023-07-29T19:34:05;8.63;;;2.00;;
43118;SDS011;28729;49.838;8.650;2023-07-29T19:38:07;3.10;;;2.03;;
43118;SDS011;28729;49.838;8.650;2023-07-29T19:42:09;3.53;;;2.17;;
43118;SDS011;28729;49.838;8.650;2023-07-29T19:46:10;3.30;;;2.17;;
43118;SDS011;28729;49.838;8.650;2023-07-29T19:50:32;3.20;;;1.88;;
43118;SDS011;28729;49.838;8.650;2023-07-29T19:54:34;2.30;;;1.60;;
43118;SDS011;28729;49.838;8.650;2023-07-29T19:58:36;3.92;;;2.17;;
43118;SDS011;28729;49.838;8.650;2023-07-29T20:02:38;5.53;;;1.87;;
43118;SDS011;28729;49.838;8.650;2023-07-29T20:06:40;4.17;;;1.93;;
43118;SDS011;28729;49.838;8.650;2023-07-29T20:10:43;3.30;;;1.67;;
43118;SDS011;28729;49.838;8.650;2023-07-29T20:14:45;2.83;;;1.85;;
43118;SDS011;28729;49.838;8.650;2023-07-29T20:18:47;3.33;;;2.30;;
43118;SDS011;28729;49.838;8.650;2023-07-29T20:22:49;3.75;;;2.00;;
43118;SDS011;28729;49.838;8.650;2023-07-29T20:26:50;5.27;;;2.43;;
43118;SDS011;28729;49.838;8.650;2023-07-29T20:30:56;3.63;;;2.30;;
43118;SDS011;28729;49.838;8.650;2023-07-29T20:34:59;2.80;;;2.00;;
43118;SDS011;28729;49.838;8.650;2023-07-29T20:39:01;4.60;;;2.17;;
43118;SDS011;28729;49.838;8.650;2023-07-29T20:43:03;4.35;;;1.98;;
43118;SDS011;28729;49.838;8.650;2023-07-29T20:47:05;3.43;;;2.07;;
43118;SDS011;28729;49.838;8.650;2023-07-29T20:51:07;4.75;;;2.20;;
43118;SDS011;28729;49.838;8.650;2023-07-29T20:55:09;4.17;;;1.83;;
43118;SDS011;28729;49.838;8.650;2023-07-29T20:59:10;3.83;;;2.20;;
43118;SDS011;28729;49.838;8.650;2023-07-29T21:03:13;4.55;;;2.60;;
43118;SDS011;28729;49.838;8.650;2023-07-29T21:07:15;4.30;;;2.25;;
43118;SDS011;28729;49.838;8.650;2023-07-29T21:11:17;4.03;;;2.38;;
43118;SDS011;28729;49.838;8.650;2023-07-29T21:15:19;3.57;;;2.30;;
43118;SDS011;28729;49.838;8.650;2023-07-29T21:19:21;4.45;;;2.42;;
43118;SDS011;28729;49.838;8.650;2023-07-29T21:23:22;4.97;;;2.83;;
43118;SDS011;28729;49.838;8.650;2023-07-29T21:27:24;6.87;;;2.17;;
43118;SDS011;28729;49.838;8.650;2023-07-29T21:31:26;3.75;;;2.30;;
43118;SDS011;28729;49.838;8.650;2023-07-29T21:35:28;3.50;;;2.13;;
43118;SDS011;28729;49.838;8.650;2023-07-29T21:39:30;6.67;;;2.27;;
43118;SDS011;28729;49.838;8.650;2023-07-29T21:43:32;3.93;;;2.07;;
43118;SDS011;28729;49.838;8.650;2023-07-29T21:47:33;5.80;;;2.20;;
43118;SDS011;28729;49.838;8.650;2023-07-29T21:51:35;3.83;;;2.10;;
43118;SDS011;28729;49.838;8.650;2023-07-29T21:55:40;5.68;;;2.45;;
43118;SDS011;28729;49.838;8.650;2023-07-29T21:59:43;4.72;;;2.50;;
43118;SDS011;28729;49.838;8.650;2023-07-29T22:03:45;4.27;;;2.80;;
43118;SDS011;28729;49.838;8.650;2023-07-29T22:07:46;4.77;;;2.30;;
43118;SDS011;28729;49.838;8.650;2023-07-29T22:11:48;7.07;;;2.60;;
43118;SDS011;28729;49.838;8.650;2023-07-29T22:15:50;8.37;;;3.30;;
43118;SDS011;28729;49.838;8.650;2023-07-29T22:19:52;5.57;;;2.30;;
43118;SDS011;28729;49.838;8.650;2023-07-29T22:23:53;6.17;;;2.80;;
43118;SDS011;28729;49.838;8.650;2023-07-29T22:28:01;5.38;;;2.85;;
43118;SDS011;28729;49.838;8.650;2023-07-29T22:32:06;6.17;;;3.00;;
43118;SDS011;28729;49.838;8.650;2023-07-29T22:36:08;4.72;;;2.42;;
43118;SDS011;28729;49.838;8.650;2023-07-29T22:40:10;5.47;;;3.13;;
43118;SDS011;28729;49.838;8.650;2023-07-29T22:44:12;5.85;;;2.95;;
43118;SDS011;28729;49.838;8.650;2023-07-29T22:48:14;6.77;;;2.50;;
43118;SDS011;28729;49.838;8.650;2023-07-29T22:52:16;5.03;;;2.93;;
43118;SDS011;28729;49.838;8.650;2023-07-29T22:56:17;5.83;;;3.13;;
43118;SDS011;28729;49.838;8.650;2023-07-29T23:00:19;4.77;;;2.97;;
43118;SDS011;28729;49.838;8.650;2023-07-29T23:04:21;10.57;;;3.63;;
43118;SDS011;28729;49.838;8.650;2023-07-29T23:08:23;4.40;;;2.95;;
43118;SDS011;28729;49.838;8.650;2023-07-29T23:12:25;4.20;;;2.78;;
43118;SDS011;28729;49.838;8.650;2023-07-29T23:16:27;5.57;;;2.87;;
43118;SDS011;28729;49.838;8.650;2023-07-29T23:20:32;5.47;;;3.15;;
43118;SDS011;28729;49.838;8.650;2023-07-29T23:24:34;5.10;;;3.22;;
43118;SDS011;28729;49.838;8.650;2023-07-29T23:28:36;5.80;;;2.60;;
43118;SDS011;28729;49.838;8.650;2023-07-29T23:32:38;4.60;;;3.10;;
43118;SDS011;28729;49.838;8.650;2023-07-29T23:36:42;5.70;;;3.20;;
43118;SDS011;28729;49.838;8.650;2023-07-29T23:40:44;6.53;;;3.80;;
43118;SDS011;28729;49.838;8.650;2023-07-29T23:44:46;4.57;;;3.25;;
43118;SDS011;28729;49.838;8.650;2023-07-29T23:48:48;6.55;;;3.20;;
43118;SDS011;28729;49.838;8.650;2023-07-29T23:52:49;5.03;;;3.20;;
43118;SDS011;28729;49.838;8.650;2023-07-29T23:56:51;4.82;;;2.90;;
